createdAt,value
2023-03-04T00:02:07.229Z,0.52
2023-03-04T00:04:38.905Z,0.50
2023-03-04T00:07:10.361Z,0.60
2023-03-04T00:09:41.965Z,1.10
2023-03-04T00:12:14.669Z,0.50
2023-03-04T00:14:46.375Z,0.40
2023-03-04T00:19:48.495Z,0.50
2023-03-04T00:22:20.015Z,0.70
2023-03-04T00:24:51.410Z,0.57
2023-03-04T00:27:22.660Z,0.50
2023-03-04T00:29:54.201Z,0.50
2023-03-04T00:34:56.504Z,0.52
2023-03-04T00:39:58.381Z,0.70
2023-03-04T00:42:29.662Z,0.70
2023-03-04T00:45:02.153Z,0.70
2023-03-04T00:47:34.112Z,0.60
2023-03-04T00:50:06.880Z,0.70
2023-03-04T00:52:38.357Z,1.13
2023-03-04T00:55:11.045Z,0.50
2023-03-04T00:57:43.005Z,0.70
2023-03-04T01:00:15.289Z,0.50
2023-03-04T01:02:47.389Z,0.55
2023-03-04T01:07:49.753Z,0.70
2023-03-04T01:12:52.616Z,0.85
2023-03-04T01:15:24.055Z,0.70
2023-03-04T01:20:26.755Z,0.85
2023-03-04T01:22:58.248Z,0.90
2023-03-04T01:25:29.531Z,0.75
2023-03-04T01:28:03.680Z,0.73
2023-03-04T01:30:36.083Z,0.65
2023-03-04T01:33:07.906Z,0.70
2023-03-04T01:35:40.098Z,0.60
2023-03-04T01:38:11.730Z,0.65
2023-03-04T01:43:23.520Z,0.43
2023-03-04T01:45:56.513Z,0.60
2023-03-04T01:48:31.692Z,0.60
2023-03-04T01:51:06.522Z,0.80
2023-03-04T01:53:37.700Z,0.70
2023-03-04T01:59:16.560Z,0.43
2023-03-04T02:01:53.277Z,0.80
2023-03-04T02:04:31.113Z,0.60
2023-03-04T02:07:04.208Z,0.60
2023-03-04T02:09:37.254Z,0.60
2023-03-04T02:12:08.903Z,0.60
2023-03-04T02:14:41.641Z,0.60
2023-03-04T02:17:16.146Z,0.50
2023-03-04T02:19:59.777Z,0.98
2023-03-04T02:22:31.811Z,0.43
2023-03-04T02:25:06.729Z,0.63
2023-03-04T02:27:37.930Z,0.50
2023-03-04T02:30:09.961Z,0.50
2023-03-04T02:32:41.526Z,0.50
2023-03-04T02:35:20.006Z,0.60
2023-03-04T02:37:51.563Z,0.50
2023-03-04T02:40:33.282Z,0.50
2023-03-04T02:43:04.693Z,0.55
2023-03-04T02:45:42.062Z,0.70
2023-03-04T02:48:14.487Z,0.52
2023-03-04T02:50:49.498Z,0.63
2023-03-04T02:53:22.314Z,0.63
2023-03-04T02:55:54.127Z,0.60
2023-03-04T02:58:27.843Z,0.75
2023-03-04T03:00:59.874Z,0.63
2023-03-04T03:03:32.418Z,0.70
2023-03-04T03:06:04.654Z,0.52
2023-03-04T03:08:36.247Z,0.73
2023-03-04T03:11:08.939Z,0.60
2023-03-04T03:13:41.535Z,0.60
2023-03-04T03:16:15.021Z,0.55
2023-03-04T03:18:46.560Z,0.60
2023-03-04T03:21:17.905Z,0.50
2023-03-04T03:23:49.947Z,0.70
2023-03-04T03:26:21.872Z,0.50
2023-03-04T03:28:53.199Z,0.60
2023-03-04T03:31:25.490Z,0.40
2023-03-04T03:33:57.089Z,0.50
2023-03-04T03:36:28.495Z,0.80
2023-03-04T03:39:00.802Z,0.65
2023-03-04T03:41:32.043Z,0.70
2023-03-04T03:44:03.533Z,0.50
2023-03-04T03:46:34.821Z,0.50
2023-03-04T03:49:06.112Z,1.13
2023-03-04T03:54:08.842Z,0.47
2023-03-04T03:56:39.953Z,0.50
2023-03-04T03:59:11.179Z,0.60
2023-03-04T04:01:42.722Z,0.60
2023-03-04T04:04:14.528Z,0.45
2023-03-04T04:06:49.504Z,0.70
2023-03-04T04:09:20.857Z,0.80
2023-03-04T04:11:52.105Z,0.70
2023-03-04T04:14:23.741Z,0.73
2023-03-04T04:19:26.114Z,0.80
2023-03-04T04:21:57.406Z,0.75
2023-03-04T04:24:28.839Z,0.80
2023-03-04T04:27:00.644Z,0.70
2023-03-04T04:29:33.124Z,0.88
2023-03-04T04:32:05.444Z,0.73
2023-03-04T04:34:37.449Z,0.50
2023-03-04T04:37:09.040Z,0.50
2023-03-04T04:39:40.685Z,0.80
2023-03-04T04:42:13.888Z,0.50
2023-03-04T04:44:45.445Z,0.50
2023-03-04T04:47:17.417Z,0.50
2023-03-04T04:49:49.074Z,0.60
2023-03-04T04:52:20.516Z,0.60
2023-03-04T04:54:51.814Z,0.60
2023-03-04T04:59:54.129Z,0.40
2023-03-04T05:02:25.955Z,0.60
2023-03-04T05:04:58.246Z,0.80
2023-03-04T05:07:30.223Z,0.60
2023-03-04T05:12:32.996Z,0.77
2023-03-04T05:17:35.239Z,0.60
2023-03-04T05:22:37.502Z,0.75
2023-03-04T05:25:09.547Z,0.65
2023-03-04T05:27:40.812Z,0.70
2023-03-04T05:32:43.337Z,0.65
2023-03-04T05:35:14.782Z,0.75
2023-03-04T05:37:45.792Z,1.20
2023-03-04T05:40:17.592Z,1.10
2023-03-04T05:42:48.865Z,0.80
2023-03-04T05:45:20.516Z,0.60
2023-03-04T05:47:52.008Z,0.68
2023-03-04T05:50:24.276Z,0.70
2023-03-04T05:52:56.603Z,0.73
2023-03-04T05:55:29.240Z,1.00
2023-03-04T05:58:00.711Z,0.60
2023-03-04T06:03:02.522Z,0.75
2023-03-04T06:05:34.463Z,0.80
2023-03-04T06:08:05.980Z,0.60
2023-03-04T06:10:37.093Z,0.60
2023-03-04T06:13:08.834Z,0.68
2023-03-04T06:15:41.306Z,0.80
2023-03-04T06:18:12.538Z,0.70
2023-03-04T06:20:44.064Z,0.70
2023-03-04T06:25:46.572Z,0.70
2023-03-04T06:28:17.752Z,0.52
2023-03-04T06:30:48.944Z,0.60
2023-03-04T06:33:20.491Z,0.70
2023-03-04T06:35:51.565Z,0.60
2023-03-04T06:38:23.079Z,0.80
2023-03-04T06:43:28.235Z,0.73
2023-03-04T06:45:59.371Z,0.90
2023-03-04T06:48:30.933Z,0.80
2023-03-04T06:51:10.695Z,0.80
2023-03-04T06:53:42.379Z,1.00
2023-03-04T06:56:17.755Z,0.90
2023-03-04T06:58:49.005Z,1.00
2023-03-04T07:01:26.452Z,0.80
2023-03-04T07:03:59.399Z,0.95
2023-03-04T07:06:31.392Z,0.93
2023-03-04T07:09:03.381Z,0.85
2023-03-04T07:11:34.891Z,1.02
2023-03-04T07:14:06.338Z,0.82
2023-03-04T07:16:38.027Z,0.80
2023-03-04T07:21:40.076Z,1.00
2023-03-04T07:24:11.362Z,0.70
2023-03-04T07:26:42.770Z,0.90
2023-03-04T07:29:15.489Z,0.88
2023-03-04T07:31:46.835Z,0.90
2023-03-04T07:34:19.034Z,1.00
2023-03-04T07:36:50.652Z,0.90
2023-03-04T07:41:52.920Z,1.33
2023-03-04T07:44:24.435Z,1.20
2023-03-04T07:46:55.819Z,1.08
2023-03-04T07:49:27.432Z,1.00
2023-03-04T07:51:58.746Z,0.98
2023-03-04T07:54:29.951Z,0.80
2023-03-04T07:57:01.471Z,1.10
2023-03-04T07:59:33.292Z,1.00
2023-03-04T08:02:04.747Z,1.10
2023-03-04T08:04:36.453Z,1.00
2023-03-04T08:07:07.758Z,1.10
2023-03-04T08:09:39.665Z,1.13
2023-03-04T08:12:10.960Z,1.20
2023-03-04T08:17:16.117Z,1.40
2023-03-04T08:19:47.643Z,1.17
2023-03-04T08:22:18.730Z,1.08
2023-03-04T08:27:24.317Z,1.38
2023-03-04T08:29:57.281Z,1.13
2023-03-04T08:32:28.637Z,1.10
2023-03-04T08:34:59.940Z,0.93
2023-03-04T08:37:33.985Z,1.10
2023-03-04T08:40:05.840Z,1.20
2023-03-04T08:42:37.074Z,1.13
2023-03-04T08:45:09.031Z,1.20
2023-03-04T08:50:11.831Z,1.10
2023-03-04T08:52:43.224Z,1.20
2023-03-04T08:57:45.293Z,1.10
2023-03-04T09:00:16.875Z,1.10
2023-03-04T09:02:48.538Z,1.60
2023-03-04T09:05:20.181Z,1.20
2023-03-04T09:07:51.418Z,1.30
2023-03-04T09:10:23.231Z,1.30
2023-03-04T09:12:54.482Z,1.08
2023-03-04T09:15:25.832Z,1.10
2023-03-04T09:17:57.133Z,1.42
2023-03-04T09:20:28.671Z,1.33
2023-03-04T09:23:00.492Z,1.08
2023-03-04T09:25:31.724Z,1.30
2023-03-04T09:28:03.172Z,1.55
2023-03-04T09:30:35.440Z,1.45
2023-03-04T09:33:06.463Z,1.38
2023-03-04T09:35:37.910Z,1.25
2023-03-04T09:38:09.963Z,1.33
2023-03-04T09:40:50.309Z,1.60
2023-03-04T09:43:31.009Z,1.60
2023-03-04T09:46:05.818Z,1.50
2023-03-04T09:48:53.264Z,1.30
2023-03-04T09:51:38.153Z,1.60
2023-03-04T09:54:47.381Z,1.60
2023-03-04T09:57:53.520Z,1.67
2023-03-04T10:00:49.783Z,1.63
2023-03-04T10:03:23.275Z,1.60
2023-03-04T10:05:59.042Z,1.88
2023-03-04T10:09:00.555Z,1.80
2023-03-04T10:14:45.684Z,1.75
2023-03-04T10:17:24.794Z,1.83
2023-03-04T10:20:06.526Z,1.85
2023-03-04T10:22:39.986Z,2.60
2023-03-04T10:25:32.909Z,1.88
2023-03-04T10:28:07.454Z,2.10
2023-03-04T10:31:08.686Z,2.38
2023-03-04T10:33:42.010Z,2.00
2023-03-04T10:36:50.139Z,2.00
2023-03-04T10:39:35.568Z,1.90
2023-03-04T10:42:27.089Z,1.88
2023-03-04T10:45:00.805Z,2.20
2023-03-04T10:47:36.207Z,2.17
2023-03-04T10:50:08.945Z,1.88
2023-03-04T10:52:51.444Z,1.85
2023-03-04T10:55:26.535Z,1.88
2023-03-04T10:58:04.694Z,2.13
2023-03-04T11:00:39.742Z,1.92
2023-03-04T11:03:29.633Z,2.20
2023-03-04T11:06:18.430Z,2.08
2023-03-04T11:09:00.560Z,1.90
2023-03-04T11:11:45.996Z,2.30
2023-03-04T11:14:31.592Z,2.33
2023-03-04T11:17:05.633Z,2.20
2023-03-04T11:19:43.993Z,2.33
2023-03-04T11:22:19.210Z,2.58
2023-03-04T11:25:08.234Z,2.28
2023-03-04T11:27:51.282Z,2.40
2023-03-04T11:30:28.459Z,2.10
2023-03-04T11:33:14.635Z,2.55
2023-03-04T11:36:21.929Z,2.03
2023-03-04T11:38:54.279Z,2.55
2023-03-04T11:41:32.048Z,2.22
2023-03-04T11:44:03.522Z,2.47
2023-03-04T11:49:24.747Z,2.15
2023-03-04T11:51:58.764Z,2.92
2023-03-04T11:54:53.695Z,3.63
2023-03-04T11:57:37.251Z,2.17
2023-03-04T12:00:20.598Z,2.50
2023-03-04T12:03:32.953Z,2.00
2023-03-04T12:06:17.123Z,2.30
2023-03-04T12:09:09.246Z,2.10
2023-03-04T12:11:56.117Z,2.00
2023-03-04T12:14:43.488Z,2.05
2023-03-04T12:17:45.276Z,1.90
2023-03-04T12:20:37.624Z,2.20
2023-03-04T12:24:02.056Z,2.15
2023-03-04T12:26:39.018Z,2.08
2023-03-04T12:29:32.367Z,2.20
2023-03-04T12:32:17.343Z,2.08
2023-03-04T12:35:23.436Z,2.40
2023-03-04T12:38:12.883Z,2.05
2023-03-04T12:41:11.232Z,2.10
2023-03-04T12:44:14.306Z,1.92
2023-03-04T12:47:10.286Z,1.80
2023-03-04T12:49:48.207Z,2.33
2023-03-04T12:52:43.700Z,1.92
2023-03-04T12:55:18.958Z,2.03
2023-03-04T12:57:51.788Z,2.13
2023-03-04T13:00:38.632Z,2.10
2023-03-04T13:03:26.235Z,2.08
2023-03-04T13:06:07.977Z,2.30
2023-03-04T13:08:59.126Z,2.10
2023-03-04T13:11:31.357Z,1.75
2023-03-04T13:14:03.394Z,2.00
2023-03-04T13:16:51.286Z,2.10
2023-03-04T13:19:49.886Z,2.17
2023-03-04T13:22:55.574Z,2.35
2023-03-04T13:25:52.340Z,2.35
2023-03-04T13:28:25.524Z,2.40
2023-03-04T13:31:01.138Z,2.60
2023-03-04T13:33:35.923Z,2.38
2023-03-04T13:36:10.604Z,2.78
2023-03-04T13:38:42.972Z,2.30
2023-03-04T13:41:35.503Z,2.17
2023-03-04T13:44:37.348Z,2.97
2023-03-04T13:47:47.004Z,4.32
2023-03-04T13:50:37.810Z,3.50
2023-03-04T13:53:51.485Z,3.00
2023-03-04T13:56:38.386Z,3.10
2023-03-04T13:59:25.110Z,2.40
2023-03-04T14:02:05.207Z,2.88
2023-03-04T14:04:39.721Z,2.13
2023-03-04T14:07:31.500Z,2.17
2023-03-04T14:10:14.024Z,2.50
2023-03-04T14:12:54.114Z,2.20
2023-03-04T14:15:31.222Z,2.20
2023-03-04T14:18:04.677Z,2.28
2023-03-04T14:20:41.125Z,1.85
2023-03-04T14:23:36.035Z,2.25
2023-03-04T14:26:19.898Z,1.92
2023-03-04T14:28:58.799Z,2.67
2023-03-04T14:31:34.230Z,2.30
2023-03-04T14:34:05.718Z,2.10
2023-03-04T14:39:10.030Z,2.00
2023-03-04T14:41:43.196Z,1.98
2023-03-04T14:44:37.388Z,2.25
2023-03-04T14:47:14.205Z,2.65
2023-03-04T14:49:45.683Z,1.95
2023-03-04T14:52:37.848Z,2.08
2023-03-04T14:55:23.867Z,2.20
2023-03-04T14:58:09.464Z,2.20
2023-03-04T15:00:44.684Z,2.08
2023-03-04T15:03:26.620Z,2.28
2023-03-04T15:05:59.946Z,2.10
2023-03-04T15:08:41.160Z,2.00
2023-03-04T15:11:23.348Z,2.55
2023-03-04T15:13:57.915Z,2.20
2023-03-04T15:16:41.479Z,2.08
2023-03-04T15:19:30.582Z,2.00
2023-03-04T15:22:09.639Z,2.22
2023-03-04T15:24:41.661Z,2.25
2023-03-04T15:27:14.895Z,2.20
2023-03-04T15:29:46.805Z,2.15
2023-03-04T15:34:48.947Z,2.28
2023-03-04T15:37:29.383Z,2.45
2023-03-04T15:40:01.173Z,2.20
2023-03-04T15:42:33.398Z,2.10
2023-03-04T15:45:04.724Z,2.15
2023-03-04T15:47:35.985Z,2.47
2023-03-04T15:50:08.376Z,2.13
2023-03-04T15:52:41.292Z,2.10
2023-03-04T15:55:21.374Z,1.80
2023-03-04T15:57:56.322Z,2.33
2023-03-04T16:00:27.723Z,2.00
2023-03-04T16:02:59.026Z,2.53
2023-03-04T16:05:30.644Z,2.25
2023-03-04T16:08:01.705Z,2.00
2023-03-04T16:13:04.086Z,2.00
2023-03-04T16:15:35.445Z,1.80
2023-03-04T16:18:09.805Z,1.67
2023-03-04T16:20:42.674Z,1.70
2023-03-04T16:23:21.025Z,1.90
2023-03-04T16:25:57.729Z,1.90
2023-03-04T16:28:28.833Z,1.85
2023-03-04T16:31:00.311Z,1.95
2023-03-04T16:33:31.662Z,1.70
2023-03-04T16:36:05.401Z,1.95
2023-03-04T16:38:36.966Z,1.70
2023-03-04T16:41:14.033Z,1.80
2023-03-04T16:43:45.632Z,1.70
2023-03-04T16:46:17.191Z,1.85
2023-03-04T16:48:49.797Z,1.90
2023-03-04T16:51:24.647Z,2.10
2023-03-04T16:54:03.146Z,1.70
2023-03-04T16:56:34.610Z,2.10
2023-03-04T16:59:05.995Z,1.65
2023-03-04T17:01:38.352Z,1.90
2023-03-04T17:04:09.803Z,2.33
2023-03-04T17:06:41.681Z,2.05
2023-03-04T17:09:13.471Z,1.80
2023-03-04T17:11:45.435Z,1.73
2023-03-04T17:14:16.695Z,1.90
2023-03-04T17:16:48.236Z,1.77
2023-03-04T17:19:20.343Z,1.70
2023-03-04T17:21:51.370Z,1.92
2023-03-04T17:24:22.571Z,1.92
2023-03-04T17:26:53.800Z,1.67
2023-03-04T17:29:25.442Z,2.20
2023-03-04T17:34:27.550Z,2.00
2023-03-04T17:36:59.077Z,2.30
2023-03-04T17:39:30.537Z,1.92
2023-03-04T17:44:32.790Z,2.08
2023-03-04T17:47:04.188Z,2.08
2023-03-04T17:49:35.945Z,1.88
2023-03-04T17:52:07.979Z,1.98
2023-03-04T17:54:39.649Z,1.90
2023-03-04T17:57:11.700Z,1.83
2023-03-04T17:59:43.143Z,1.80
2023-03-04T18:04:50.355Z,1.95
2023-03-04T18:07:21.808Z,1.90
2023-03-04T18:09:53.154Z,1.63
2023-03-04T18:12:24.689Z,1.60
2023-03-04T18:17:28.029Z,1.77
2023-03-04T18:19:59.828Z,1.70
2023-03-04T18:22:33.715Z,2.30
2023-03-04T18:25:05.074Z,2.63
2023-03-04T18:27:36.468Z,1.80
2023-03-04T18:30:10.267Z,1.77
2023-03-04T18:32:51.890Z,2.00
2023-03-04T18:35:24.460Z,2.15
2023-03-04T18:37:57.063Z,1.83
2023-03-04T18:40:28.570Z,2.05
2023-03-04T18:43:06.487Z,2.05
2023-03-04T18:45:38.062Z,1.73
2023-03-04T18:48:09.723Z,1.88
2023-03-04T18:50:40.771Z,1.98
2023-03-04T18:53:12.002Z,2.00
2023-03-04T18:55:43.334Z,2.10
2023-03-04T18:58:14.821Z,2.10
2023-03-04T19:00:46.255Z,2.13
2023-03-04T19:03:17.632Z,1.80
2023-03-04T19:05:49.036Z,2.15
2023-03-04T19:08:20.441Z,2.15
2023-03-04T19:10:51.784Z,2.40
2023-03-04T19:13:24.264Z,2.75
2023-03-04T19:15:56.590Z,2.30
2023-03-04T19:18:28.021Z,1.80
2023-03-04T19:21:03.680Z,1.60
2023-03-04T19:23:36.539Z,1.92
2023-03-04T19:26:11.747Z,2.10
2023-03-04T19:28:43.462Z,1.83
2023-03-04T19:33:45.374Z,1.67
2023-03-04T19:36:16.713Z,2.05
2023-03-04T19:38:47.787Z,1.88
2023-03-04T19:41:19.957Z,1.92
2023-03-04T19:43:51.938Z,1.75
2023-03-04T19:46:23.346Z,2.10
2023-03-04T19:48:54.454Z,1.90
2023-03-04T19:51:30.783Z,1.83
2023-03-04T19:54:02.822Z,2.45
2023-03-04T19:56:34.362Z,2.17
2023-03-04T20:01:38.516Z,1.90
2023-03-04T20:04:17.905Z,2.10
2023-03-04T20:06:51.871Z,2.05
2023-03-04T20:09:24.232Z,2.50
2023-03-04T20:11:58.869Z,2.22
2023-03-04T20:14:31.042Z,2.10
2023-03-04T20:17:04.316Z,1.80
2023-03-04T20:19:37.084Z,1.90
2023-03-04T20:22:10.117Z,1.95
2023-03-04T20:24:41.666Z,1.98
2023-03-04T20:27:16.831Z,1.65
2023-03-04T20:29:49.141Z,1.90
2023-03-04T20:32:20.452Z,1.80
2023-03-04T20:34:55.738Z,1.73
2023-03-04T20:37:27.810Z,1.98
2023-03-04T20:39:59.754Z,1.50
2023-03-04T20:42:30.988Z,1.70
2023-03-04T20:45:02.457Z,1.90
2023-03-04T20:47:34.326Z,1.60
2023-03-04T20:50:07.401Z,1.98
2023-03-04T20:52:38.854Z,1.50
2023-03-04T20:57:42.507Z,1.67
2023-03-04T21:00:14.480Z,2.03
2023-03-04T21:02:45.957Z,1.63
2023-03-04T21:05:17.149Z,1.80
2023-03-04T21:07:48.138Z,1.65
2023-03-04T21:10:21.168Z,1.65
2023-03-04T21:12:52.977Z,1.50
2023-03-04T21:17:56.029Z,1.58
2023-03-04T21:20:27.226Z,1.50
2023-03-04T21:22:59.485Z,1.50
2023-03-04T21:25:30.741Z,1.60
2023-03-04T21:28:02.007Z,1.50
2023-03-04T21:30:33.377Z,1.50
2023-03-04T21:33:05.504Z,1.30
2023-03-04T21:35:38.618Z,1.60
2023-03-04T21:38:10.047Z,1.50
2023-03-04T21:43:12.409Z,1.55
2023-03-04T21:45:43.550Z,1.45
2023-03-04T21:48:14.817Z,1.23
2023-03-04T21:50:46.035Z,1.38
2023-03-04T21:53:22.687Z,1.60
2023-03-04T21:55:54.915Z,1.40
2023-03-04T21:58:26.981Z,1.30
2023-03-04T22:01:01.002Z,1.50
2023-03-04T22:03:32.471Z,1.40
2023-03-04T22:06:12.515Z,1.50
2023-03-04T22:08:44.152Z,1.52
2023-03-04T22:11:15.721Z,1.83
2023-03-04T22:13:47.511Z,1.40
2023-03-04T22:16:19.471Z,1.38
2023-03-04T22:21:22.997Z,1.50
2023-03-04T22:23:55.009Z,2.05
2023-03-04T22:26:33.293Z,1.52
2023-03-04T22:29:06.149Z,1.75
2023-03-04T22:31:39.207Z,1.58
2023-03-04T22:34:16.293Z,1.40
2023-03-04T22:36:48.934Z,1.30
2023-03-04T22:39:22.412Z,1.27
2023-03-04T22:41:53.615Z,1.55
2023-03-04T22:46:55.864Z,1.42
2023-03-04T22:49:27.091Z,1.45
2023-03-04T22:54:31.059Z,1.70
2023-03-04T22:57:02.144Z,1.45
2023-03-04T22:59:33.448Z,1.55
2023-03-04T23:02:05.151Z,1.73
2023-03-04T23:07:07.165Z,1.80
2023-03-04T23:12:10.570Z,1.75
2023-03-04T23:14:45.034Z,1.40
2023-03-04T23:17:16.383Z,1.67
2023-03-04T23:19:47.843Z,1.33
2023-03-04T23:22:19.143Z,1.30
2023-03-04T23:24:51.344Z,1.60
2023-03-04T23:27:22.616Z,1.50
2023-03-04T23:29:54.587Z,1.60
2023-03-04T23:32:26.105Z,1.67
2023-03-04T23:37:29.628Z,1.23
2023-03-04T23:42:33.280Z,1.33
2023-03-04T23:50:08.777Z,1.50
2023-03-04T23:52:40.171Z,1.60
2023-03-04T23:55:18.247Z,1.75
2023-03-04T23:57:50.168Z,1.45
